Terminal Aerodrome Forecast
Issued by NWS Blacksburg, VA

Current Version | Previous Version | Graphics & Text | Print | Product List | Glossary On
Versions: 1 2 3 4 5 6 7 8 9 10 11 12 13 14 15 16 17 18 19
000
FTUS41 KRNK 251129
TAFBLF
TAF
KBLF 251129Z 2512/2612 00000KT P6SM SCT090
     FM251700 17005KT P6SM VCTS SCT040CB BKN080
     FM260000 VRB03KT P6SM BKN045=

USA.gov is the U.S. government's official web portal to all federal, state and local government web resources and services.